Terminal Aerodrome Forecast
Issued by NWS Shreveport, LA

Home | Current Version | Previous Version | Text Only | Print | Product List | Glossary On
Versions: 1 2 3 4 5 6 7 8 9 10 11 12 13 14
000
FTUS44 KSHV 291700
TAFLFK
TAF
KLFK 291721Z 2918/3018 VRB06KT P6SM SCT050 SCT120 SCT250
     FM300000 VRB03KT P6SM SCT140 SCT250
     FM301400 14005KT P6SM FEW040=

USA.gov is the U.S. government's official web portal to all federal, state and local government web resources and services.